sensor_id;sensor_type;location;lat;lon;timestamp;pressure;altitude;pressure_sealevel;temperature;humidity
13367;BME280;6752;52.612;13.630;2023-02-28T00:02:47;102505.77;;;0.17;100.00
13367;BME280;6752;52.612;13.630;2023-02-28T00:07:50;102508.36;;;0.25;100.00
13367;BME280;6752;52.612;13.630;2023-02-28T00:12:53;102503.08;;;0.17;100.00
13367;BME280;6752;52.612;13.630;2023-02-28T00:17:54;102510.65;;;-0.02;100.00
13367;BME280;6752;52.612;13.630;2023-02-28T00:23:13;102504.23;;;0.07;100.00
13367;BME280;6752;52.612;13.630;2023-02-28T00:28:16;102502.78;;;0.09;100.00
13367;BME280;6752;52.612;13.630;2023-02-28T00:33:18;102508.55;;;0.15;100.00
13367;BME280;6752;52.612;13.630;2023-02-28T00:38:20;102506.65;;;0.05;100.00
13367;BME280;6752;52.612;13.630;2023-02-28T00:43:23;102514.23;;;-0.02;100.00
13367;BME280;6752;52.612;13.630;2023-02-28T00:48:25;102513.17;;;0.13;100.00
13367;BME280;6752;52.612;13.630;2023-02-28T00:53:28;102511.42;;;0.07;100.00
13367;BME280;6752;52.612;13.630;2023-02-28T00:58:31;102512.97;;;0.10;100.00
13367;BME280;6752;52.612;13.630;2023-02-28T01:03:36;102511.89;;;-0.07;100.00
13367;BME280;6752;52.612;13.630;2023-02-28T01:08:35;102510.54;;;0.00;100.00
13367;BME280;6752;52.612;13.630;2023-02-28T01:13:37;102515.38;;;-0.12;100.00
13367;BME280;6752;52.612;13.630;2023-02-28T01:18:40;102504.13;;;-0.17;100.00
13367;BME280;6752;52.612;13.630;2023-02-28T01:23:45;102506.27;;;-0.16;100.00
13367;BME280;6752;52.612;13.630;2023-02-28T01:28:48;102496.78;;;-0.20;100.00
13367;BME280;6752;52.612;13.630;2023-02-28T01:33:50;102493.97;;;-0.32;100.00
13367;BME280;6752;52.612;13.630;2023-02-28T01:38:52;102499.14;;;-0.48;100.00
13367;BME280;6752;52.612;13.630;2023-02-28T01:44:07;102501.96;;;-0.43;100.00
13367;BME280;6752;52.612;13.630;2023-02-28T01:49:11;102490.45;;;-0.65;100.00
13367;BME280;6752;52.612;13.630;2023-02-28T01:54:13;102489.12;;;-0.72;100.00
13367;BME280;6752;52.612;13.630;2023-02-28T01:59:14;102492.23;;;-0.78;100.00
13367;BME280;6752;52.612;13.630;2023-02-28T02:04:16;102493.78;;;-0.81;100.00
13367;BME280;6752;52.612;13.630;2023-02-28T02:09:18;102489.70;;;-1.00;100.00
13367;BME280;6752;52.612;13.630;2023-02-28T02:14:30;102492.14;;;-1.10;100.00
13367;BME280;6752;52.612;13.630;2023-02-28T02:30:21;102494.84;;;-1.37;100.00
13367;BME280;6752;52.612;13.630;2023-02-28T02:40:49;102498.91;;;-1.45;100.00
13367;BME280;6752;52.612;13.630;2023-02-28T02:45:52;102505.69;;;-1.60;100.00
13367;BME280;6752;52.612;13.630;2023-02-28T02:51:01;102506.84;;;-1.64;100.00
13367;BME280;6752;52.612;13.630;2023-02-28T02:55:59;102501.88;;;-1.63;100.00
13367;BME280;6752;52.612;13.630;2023-02-28T03:01:02;102505.44;;;-1.71;100.00
13367;BME280;6752;52.612;13.630;2023-02-28T03:06:04;102499.36;;;-1.66;100.00
13367;BME280;6752;52.612;13.630;2023-02-28T03:11:10;102506.75;;;-1.84;100.00
13367;BME280;6752;52.612;13.630;2023-02-28T03:26:44;102513.18;;;-1.94;100.00
13367;BME280;6752;52.612;13.630;2023-02-28T03:32:36;102511.13;;;-1.97;100.00
13367;BME280;6752;52.612;13.630;2023-02-28T03:36:52;102511.57;;;-2.11;100.00
13367;BME280;6752;52.612;13.630;2023-02-28T03:42:05;102506.81;;;-2.21;100.00
13367;BME280;6752;52.612;13.630;2023-02-28T03:52:07;102516.36;;;-2.31;100.00
13367;BME280;6752;52.612;13.630;2023-02-28T03:57:56;102513.98;;;-2.37;100.00
13367;BME280;6752;52.612;13.630;2023-02-28T04:02:18;102516.36;;;-2.46;100.00
13367;BME280;6752;52.612;13.630;2023-02-28T04:07:20;102523.94;;;-2.54;100.00
13367;BME280;6752;52.612;13.630;2023-02-28T04:12:23;102522.13;;;-2.53;100.00
13367;BME280;6752;52.612;13.630;2023-02-28T04:17:25;102517.41;;;-2.64;100.00
13367;BME280;6752;52.612;13.630;2023-02-28T04:22:27;102522.98;;;-2.53;100.00
13367;BME280;6752;52.612;13.630;2023-02-28T04:27:29;102526.84;;;-2.65;100.00
13367;BME280;6752;52.612;13.630;2023-02-28T04:32:32;102530.35;;;-2.72;100.00
13367;BME280;6752;52.612;13.630;2023-02-28T04:37:34;102533.44;;;-2.79;100.00
13367;BME280;6752;52.612;13.630;2023-02-28T04:42:37;102519.62;;;-2.71;100.00
13367;BME280;6752;52.612;13.630;2023-02-28T04:47:54;102531.37;;;-2.89;100.00
13367;BME280;6752;52.612;13.630;2023-02-28T04:52:57;102534.85;;;-2.88;100.00
13367;BME280;6752;52.612;13.630;2023-02-28T04:57:59;102534.58;;;-2.99;100.00
13367;BME280;6752;52.612;13.630;2023-02-28T05:03:02;102543.62;;;-3.01;100.00
13367;BME280;6752;52.612;13.630;2023-02-28T05:08:08;102545.27;;;-3.06;100.00
13367;BME280;6752;52.612;13.630;2023-02-28T05:13:06;102551.31;;;-3.12;100.00
13367;BME280;6752;52.612;13.630;2023-02-28T05:18:23;102550.63;;;-3.15;100.00
13367;BME280;6752;52.612;13.630;2023-02-28T05:23:26;102550.13;;;-3.06;100.00
13367;BME280;6752;52.612;13.630;2023-02-28T05:28:28;102562.30;;;-3.17;100.00
13367;BME280;6752;52.612;13.630;2023-02-28T05:33:31;102562.44;;;-3.27;100.00
13367;BME280;6752;52.612;13.630;2023-02-28T05:38:33;102560.80;;;-3.30;100.00
13367;BME280;6752;52.612;13.630;2023-02-28T05:43:36;102566.72;;;-3.40;100.00
13367;BME280;6752;52.612;13.630;2023-02-28T05:48:38;102564.61;;;-3.42;100.00
13367;BME280;6752;52.612;13.630;2023-02-28T05:53:43;102570.97;;;-3.37;100.00
13367;BME280;6752;52.612;13.630;2023-02-28T05:58:45;102568.18;;;-3.50;100.00
13367;BME280;6752;52.612;13.630;2023-02-28T06:03:48;102573.64;;;-3.45;100.00
13367;BME280;6752;52.612;13.630;2023-02-28T06:08:50;102573.51;;;-3.43;100.00
13367;BME280;6752;52.612;13.630;2023-02-28T06:13:56;102572.65;;;-3.43;100.00
13367;BME280;6752;52.612;13.630;2023-02-28T06:19:01;102580.17;;;-3.43;100.00
13367;BME280;6752;52.612;13.630;2023-02-28T06:24:03;102591.19;;;-3.49;100.00
13367;BME280;6752;52.612;13.630;2023-02-28T06:29:06;102587.75;;;-3.43;100.00
13367;BME280;6752;52.612;13.630;2023-02-28T06:34:08;102593.94;;;-3.34;100.00
13367;BME280;6752;52.612;13.630;2023-02-28T06:39:10;102598.95;;;-3.28;100.00
13367;BME280;6752;52.612;13.630;2023-02-28T06:44:14;102607.91;;;-3.21;100.00
13367;BME280;6752;52.612;13.630;2023-02-28T06:49:15;102612.64;;;-2.95;100.00
13367;BME280;6752;52.612;13.630;2023-02-28T06:54:21;102613.34;;;-2.84;100.00
13367;BME280;6752;52.612;13.630;2023-02-28T06:59:23;102613.86;;;-2.62;100.00
13367;BME280;6752;52.612;13.630;2023-02-28T07:04:25;102616.06;;;-2.24;100.00
13367;BME280;6752;52.612;13.630;2023-02-28T07:09:28;102609.35;;;-1.50;100.00
13367;BME280;6752;52.612;13.630;2023-02-28T07:14:30;102610.40;;;-1.17;100.00
13367;BME280;6752;52.612;13.630;2023-02-28T07:19:36;102603.91;;;-0.73;100.00
13367;BME280;6752;52.612;13.630;2023-02-28T07:24:35;102601.75;;;-0.20;100.00
13367;BME280;6752;52.612;13.630;2023-02-28T07:29:38;102607.95;;;0.38;100.00
13367;BME280;6752;52.612;13.630;2023-02-28T07:34:40;102608.80;;;0.89;100.00
13367;BME280;6752;52.612;13.630;2023-02-28T07:39:42;102602.39;;;1.46;100.00
13367;BME280;6752;52.612;13.630;2023-02-28T07:44:45;102600.64;;;2.09;100.00
13367;BME280;6752;52.612;13.630;2023-02-28T07:49:47;102606.16;;;2.53;100.00
13367;BME280;6752;52.612;13.630;2023-02-28T07:54:50;102603.55;;;3.07;100.00
13367;BME280;6752;52.612;13.630;2023-02-28T07:59:52;102602.33;;;3.60;100.00
13367;BME280;6752;52.612;13.630;2023-02-28T08:04:54;102600.41;;;3.98;100.00
13367;BME280;6752;52.612;13.630;2023-02-28T08:09:57;102595.03;;;4.60;100.00
13367;BME280;6752;52.612;13.630;2023-02-28T08:14:59;102604.13;;;4.49;100.00
13367;BME280;6752;52.612;13.630;2023-02-28T08:20:01;102606.46;;;4.01;100.00
13367;BME280;6752;52.612;13.630;2023-02-28T08:25:03;102600.91;;;4.55;100.00
13367;BME280;6752;52.612;13.630;2023-02-28T08:30:06;102597.47;;;4.99;100.00
13367;BME280;6752;52.612;13.630;2023-02-28T08:35:09;102584.16;;;5.26;84.79
13367;BME280;6752;52.612;13.630;2023-02-28T08:40:11;102584.68;;;6.78;85.63
13367;BME280;6752;52.612;13.630;2023-02-28T08:45:14;102587.15;;;7.53;81.20
13367;BME280;6752;52.612;13.630;2023-02-28T08:50:16;102589.78;;;7.80;78.04
13367;BME280;6752;52.612;13.630;2023-02-28T08:55:18;102582.91;;;6.91;67.42
13367;BME280;6752;52.612;13.630;2023-02-28T09:00:24;102595.08;;;5.15;63.13
13367;BME280;6752;52.612;13.630;2023-02-28T09:05:25;102584.06;;;7.83;64.62
13367;BME280;6752;52.612;13.630;2023-02-28T09:10:27;102574.52;;;8.10;60.54
13367;BME280;6752;52.612;13.630;2023-02-28T09:15:36;102579.73;;;8.68;61.59
13367;BME280;6752;52.612;13.630;2023-02-28T09:20:32;102578.39;;;9.10;57.16
13367;BME280;6752;52.612;13.630;2023-02-28T09:25:34;102564.14;;;7.79;54.08
13367;BME280;6752;52.612;13.630;2023-02-28T09:30:37;102573.14;;;8.54;56.74
13367;BME280;6752;52.612;13.630;2023-02-28T09:35:39;102567.50;;;10.49;56.20
13367;BME280;6752;52.612;13.630;2023-02-28T09:40:58;102568.83;;;10.26;56.59
13367;BME280;6752;52.612;13.630;2023-02-28T09:46:00;102565.22;;;7.95;50.64
13367;BME280;6752;52.612;13.630;2023-02-28T09:51:03;102570.98;;;9.37;49.51
13367;BME280;6752;52.612;13.630;2023-02-28T09:56:07;102571.84;;;8.87;50.92
13367;BME280;6752;52.612;13.630;2023-02-28T10:06:48;102579.23;;;8.69;49.01
13367;BME280;6752;52.612;13.630;2023-02-28T10:11:49;102569.82;;;7.85;47.16
13367;BME280;6752;52.612;13.630;2023-02-28T10:17:08;102568.98;;;8.54;48.01
13367;BME280;6752;52.612;13.630;2023-02-28T10:22:16;102580.55;;;10.34;51.07
13367;BME280;6752;52.612;13.630;2023-02-28T10:27:24;102573.22;;;12.28;50.10
13367;BME280;6752;52.612;13.630;2023-02-28T10:32:26;102569.67;;;9.77;46.30
13367;BME280;6752;52.612;13.630;2023-02-28T10:37:27;102570.20;;;12.57;48.42
13367;BME280;6752;52.612;13.630;2023-02-28T10:42:30;102569.44;;;12.85;49.83
13367;BME280;6752;52.612;13.630;2023-02-28T10:47:33;102559.68;;;12.64;47.22
13367;BME280;6752;52.612;13.630;2023-02-28T10:52:38;102556.77;;;14.06;48.76
13367;BME280;6752;52.612;13.630;2023-02-28T10:57:39;102550.46;;;14.20;48.87
13367;BME280;6752;52.612;13.630;2023-02-28T11:02:42;102534.06;;;14.29;46.52
13367;BME280;6752;52.612;13.630;2023-02-28T11:07:51;102528.36;;;15.03;47.06
13367;BME280;6752;52.612;13.630;2023-02-28T11:12:54;102516.70;;;15.82;45.96
13367;BME280;6752;52.612;13.630;2023-02-28T11:17:55;102527.66;;;14.88;46.24
13367;BME280;6752;52.612;13.630;2023-02-28T11:22:57;102520.34;;;12.36;43.47
13367;BME280;6752;52.612;13.630;2023-02-28T11:28:00;102521.80;;;14.53;43.72
13367;BME280;6752;52.612;13.630;2023-02-28T11:38:04;102521.22;;;14.88;45.16
13367;BME280;6752;52.612;13.630;2023-02-28T11:44:08;102520.66;;;15.06;45.31
13367;BME280;6752;52.612;13.630;2023-02-28T11:48:27;102515.92;;;14.84;46.11
13367;BME280;6752;52.612;13.630;2023-02-28T11:53:50;102526.59;;;11.46;43.72
13367;BME280;6752;52.612;13.630;2023-02-28T11:59:00;102521.36;;;14.50;43.74
13367;BME280;6752;52.612;13.630;2023-02-28T12:09:23;102514.27;;;13.78;44.54
13367;BME280;6752;52.612;13.630;2023-02-28T12:14:41;102516.64;;;10.84;45.74
13367;BME280;6752;52.612;13.630;2023-02-28T12:19:45;102494.44;;;12.50;44.55
13367;BME280;6752;52.612;13.630;2023-02-28T12:25:01;102490.13;;;12.33;45.17
13367;BME280;6752;52.612;13.630;2023-02-28T12:30:04;102475.41;;;13.85;46.38
13367;BME280;6752;52.612;13.630;2023-02-28T12:35:14;102470.48;;;13.49;46.45
13367;BME280;6752;52.612;13.630;2023-02-28T12:40:21;102460.38;;;13.21;45.65
13367;BME280;6752;52.612;13.630;2023-02-28T12:45:19;102444.08;;;14.15;44.70
13367;BME280;6752;52.612;13.630;2023-02-28T12:50:21;102440.66;;;11.95;43.47
13367;BME280;6752;52.612;13.630;2023-02-28T12:55:40;102440.41;;;9.43;46.59
13367;BME280;6752;52.612;13.630;2023-02-28T13:00:49;102435.36;;;12.30;46.53
13367;BME280;6752;52.612;13.630;2023-02-28T13:11:29;102431.67;;;11.60;47.55
13367;BME280;6752;52.612;13.630;2023-02-28T13:21:55;102427.98;;;10.06;45.86
13367;BME280;6752;52.612;13.630;2023-02-28T13:47:39;102424.55;;;10.90;48.13
13367;BME280;6752;52.612;13.630;2023-02-28T13:52:46;102424.28;;;10.66;49.39
13367;BME280;6752;52.612;13.630;2023-02-28T13:58:06;102416.77;;;9.41;47.25
13367;BME280;6752;52.612;13.630;2023-02-28T14:08:28;102418.53;;;8.84;48.82
13367;BME280;6752;52.612;13.630;2023-02-28T14:13:41;102416.64;;;10.22;49.33
13367;BME280;6752;52.612;13.630;2023-02-28T14:19:32;102412.07;;;10.69;49.60
13367;BME280;6752;52.612;13.630;2023-02-28T14:35:03;102396.43;;;8.83;46.69
13367;BME280;6752;52.612;13.630;2023-02-28T14:40:03;102409.72;;;9.06;49.08
13367;BME280;6752;52.612;13.630;2023-02-28T14:45:05;102402.89;;;8.98;49.20
13367;BME280;6752;52.612;13.630;2023-02-28T14:50:17;102407.49;;;9.98;48.97
13367;BME280;6752;52.612;13.630;2023-02-28T14:55:12;102401.08;;;9.67;48.49
13367;BME280;6752;52.612;13.630;2023-02-28T15:00:32;102394.92;;;9.85;49.06
13367;BME280;6752;52.612;13.630;2023-02-28T15:05:30;102396.62;;;9.86;49.08
13367;BME280;6752;52.612;13.630;2023-02-28T15:10:32;102394.22;;;9.43;49.47
13367;BME280;6752;52.612;13.630;2023-02-28T15:15:39;102387.47;;;9.75;50.42
13367;BME280;6752;52.612;13.630;2023-02-28T15:20:38;102381.36;;;9.61;50.06
13367;BME280;6752;52.612;13.630;2023-02-28T15:25:39;102392.37;;;10.07;50.83
13367;BME280;6752;52.612;13.630;2023-02-28T15:30:49;102376.20;;;9.22;48.76
13367;BME280;6752;52.612;13.630;2023-02-28T15:35:44;102378.28;;;8.16;48.59
13367;BME280;6752;52.612;13.630;2023-02-28T15:40:50;102379.95;;;8.80;49.42
13367;BME280;6752;52.612;13.630;2023-02-28T15:51:09;102389.05;;;7.96;50.18
13367;BME280;6752;52.612;13.630;2023-02-28T15:56:26;102393.16;;;8.34;51.44
13367;BME280;6752;52.612;13.630;2023-02-28T16:01:29;102394.05;;;8.08;51.41
13367;BME280;6752;52.612;13.630;2023-02-28T16:06:37;102385.73;;;7.28;51.92
13367;BME280;6752;52.612;13.630;2023-02-28T16:11:39;102399.56;;;6.41;56.02
13367;BME280;6752;52.612;13.630;2023-02-28T16:16:46;102401.92;;;6.98;55.96
13367;BME280;6752;52.612;13.630;2023-02-28T16:21:46;102400.14;;;5.84;56.16
13367;BME280;6752;52.612;13.630;2023-02-28T16:26:48;102404.38;;;5.49;59.00
13367;BME280;6752;52.612;13.630;2023-02-28T16:31:51;102408.75;;;4.88;60.45
13367;BME280;6752;52.612;13.630;2023-02-28T16:36:53;102410.65;;;4.58;64.36
13367;BME280;6752;52.612;13.630;2023-02-28T16:41:55;102417.92;;;4.91;64.45
13367;BME280;6752;52.612;13.630;2023-02-28T16:47:02;102415.91;;;4.05;64.36
13367;BME280;6752;52.612;13.630;2023-02-28T16:52:04;102422.47;;;3.56;65.93
13367;BME280;6752;52.612;13.630;2023-02-28T16:57:06;102421.98;;;3.30;67.93
13367;BME280;6752;52.612;13.630;2023-02-28T17:02:10;102434.22;;;3.91;73.98
13367;BME280;6752;52.612;13.630;2023-02-28T17:07:11;102427.55;;;3.91;74.33
13367;BME280;6752;52.612;13.630;2023-02-28T17:12:13;102445.67;;;3.68;75.63
13367;BME280;6752;52.612;13.630;2023-02-28T17:17:20;102443.13;;;3.56;75.54
13367;BME280;6752;52.612;13.630;2023-02-28T17:22:22;102435.04;;;3.30;81.71
13367;BME280;6752;52.612;13.630;2023-02-28T17:27:24;102451.24;;;2.98;85.52
13367;BME280;6752;52.612;13.630;2023-02-28T17:32:27;102449.84;;;2.77;87.55
13367;BME280;6752;52.612;13.630;2023-02-28T17:37:29;102444.56;;;2.65;87.07
13367;BME280;6752;52.612;13.630;2023-02-28T17:42:31;102444.80;;;2.40;87.15
13367;BME280;6752;52.612;13.630;2023-02-28T17:47:34;102454.39;;;2.33;88.03
13367;BME280;6752;52.612;13.630;2023-02-28T17:52:36;102456.05;;;2.23;89.41
13367;BME280;6752;52.612;13.630;2023-02-28T17:57:39;102455.88;;;2.03;90.52
13367;BME280;6752;52.612;13.630;2023-02-28T18:02:41;102460.68;;;1.82;91.99
13367;BME280;6752;52.612;13.630;2023-02-28T18:07:46;102458.66;;;1.68;93.76
13367;BME280;6752;52.612;13.630;2023-02-28T18:12:49;102460.75;;;1.47;94.99
13367;BME280;6752;52.612;13.630;2023-02-28T18:17:55;102463.93;;;1.29;93.25
13367;BME280;6752;52.612;13.630;2023-02-28T18:22:53;102470.02;;;1.20;92.74
13367;BME280;6752;52.612;13.630;2023-02-28T18:27:55;102490.03;;;1.09;95.08
13367;BME280;6752;52.612;13.630;2023-02-28T18:33:01;102494.70;;;0.94;95.31
13367;BME280;6752;52.612;13.630;2023-02-28T18:38:13;102509.17;;;0.81;95.97
13367;BME280;6752;52.612;13.630;2023-02-28T18:43:14;102505.83;;;0.65;95.76
13367;BME280;6752;52.612;13.630;2023-02-28T18:48:17;102515.88;;;0.51;97.36
13367;BME280;6752;52.612;13.630;2023-02-28T18:53:19;102507.69;;;0.34;98.01
13367;BME280;6752;52.612;13.630;2023-02-28T18:58:21;102501.73;;;0.23;97.95
13367;BME280;6752;52.612;13.630;2023-02-28T19:03:24;102501.97;;;0.14;98.93
13367;BME280;6752;52.612;13.630;2023-02-28T19:08:26;102493.59;;;-0.01;100.00
13367;BME280;6752;52.612;13.630;2023-02-28T19:13:29;102497.16;;;-0.13;100.00
13367;BME280;6752;52.612;13.630;2023-02-28T19:18:31;102505.41;;;-0.22;100.00
13367;BME280;6752;52.612;13.630;2023-02-28T19:23:33;102498.84;;;-0.25;100.00
13367;BME280;6752;52.612;13.630;2023-02-28T19:28:36;102494.34;;;-0.37;100.00
13367;BME280;6752;52.612;13.630;2023-02-28T19:33:38;102496.02;;;-0.35;100.00
13367;BME280;6752;52.612;13.630;2023-02-28T19:38:41;102492.05;;;-0.36;100.00
13367;BME280;6752;52.612;13.630;2023-02-28T19:43:43;102489.23;;;-0.59;100.00
13367;BME280;6752;52.612;13.630;2023-02-28T19:48:45;102491.54;;;-0.74;100.00
13367;BME280;6752;52.612;13.630;2023-02-28T19:53:48;102481.84;;;-0.76;100.00
13367;BME280;6752;52.612;13.630;2023-02-28T19:58:50;102488.36;;;-0.86;100.00
13367;BME280;6752;52.612;13.630;2023-02-28T20:03:53;102494.98;;;-0.92;100.00
13367;BME280;6752;52.612;13.630;2023-02-28T20:08:55;102500.45;;;-1.01;100.00
13367;BME280;6752;52.612;13.630;2023-02-28T20:13:57;102503.50;;;-1.27;100.00
13367;BME280;6752;52.612;13.630;2023-02-28T20:19:00;102498.28;;;-1.22;100.00
13367;BME280;6752;52.612;13.630;2023-02-28T20:24:03;102494.83;;;-1.30;100.00
13367;BME280;6752;52.612;13.630;2023-02-28T20:29:05;102484.67;;;-1.46;100.00
13367;BME280;6752;52.612;13.630;2023-02-28T20:34:07;102489.02;;;-1.44;100.00
13367;BME280;6752;52.612;13.630;2023-02-28T20:39:09;102482.62;;;-1.48;100.00
13367;BME280;6752;52.612;13.630;2023-02-28T20:44:12;102482.25;;;-1.49;100.00
13367;BME280;6752;52.612;13.630;2023-02-28T20:49:13;102483.81;;;-1.60;100.00
13367;BME280;6752;52.612;13.630;2023-02-28T20:54:16;102487.59;;;-1.63;100.00
13367;BME280;6752;52.612;13.630;2023-02-28T20:59:18;102486.05;;;-1.67;100.00
13367;BME280;6752;52.612;13.630;2023-02-28T21:04:21;102477.55;;;-2.08;100.00
13367;BME280;6752;52.612;13.630;2023-02-28T21:09:23;102472.67;;;-2.02;100.00
13367;BME280;6752;52.612;13.630;2023-02-28T21:14:26;102473.00;;;-2.00;100.00
13367;BME280;6752;52.612;13.630;2023-02-28T21:19:28;102479.74;;;-2.08;100.00
13367;BME280;6752;52.612;13.630;2023-02-28T21:24:30;102476.88;;;-2.05;100.00
13367;BME280;6752;52.612;13.630;2023-02-28T21:29:33;102473.81;;;-2.27;100.00
13367;BME280;6752;52.612;13.630;2023-02-28T21:34:35;102476.02;;;-2.49;100.00
13367;BME280;6752;52.612;13.630;2023-02-28T21:39:38;102487.45;;;-2.32;100.00
13367;BME280;6752;52.612;13.630;2023-02-28T21:44:40;102484.78;;;-2.32;100.00
13367;BME280;6752;52.612;13.630;2023-02-28T21:49:42;102485.98;;;-2.37;100.00
13367;BME280;6752;52.612;13.630;2023-02-28T21:54:45;102486.64;;;-2.33;100.00
13367;BME280;6752;52.612;13.630;2023-02-28T21:59:47;102483.46;;;-2.40;100.00
13367;BME280;6752;52.612;13.630;2023-02-28T22:04:50;102486.84;;;-2.44;100.00
13367;BME280;6752;52.612;13.630;2023-02-28T22:09:52;102494.19;;;-2.48;100.00
13367;BME280;6752;52.612;13.630;2023-02-28T22:14:55;102495.91;;;-2.47;100.00
13367;BME280;6752;52.612;13.630;2023-02-28T22:19:57;102493.66;;;-2.53;100.00
13367;BME280;6752;52.612;13.630;2023-02-28T22:24:59;102492.28;;;-2.60;100.00
13367;BME280;6752;52.612;13.630;2023-02-28T22:30:02;102505.63;;;-2.68;100.00
13367;BME280;6752;52.612;13.630;2023-02-28T22:35:04;102510.05;;;-2.67;100.00
13367;BME280;6752;52.612;13.630;2023-02-28T22:40:10;102504.28;;;-2.68;100.00
13367;BME280;6752;52.612;13.630;2023-02-28T22:45:09;102504.45;;;-2.78;100.00
13367;BME280;6752;52.612;13.630;2023-02-28T22:50:11;102509.41;;;-2.87;100.00
13367;BME280;6752;52.612;13.630;2023-02-28T22:55:14;102519.59;;;-2.93;100.00
13367;BME280;6752;52.612;13.630;2023-02-28T23:00:16;102516.48;;;-2.94;100.00
13367;BME280;6752;52.612;13.630;2023-02-28T23:05:19;102522.33;;;-3.02;100.00
13367;BME280;6752;52.612;13.630;2023-02-28T23:10:21;102515.31;;;-3.04;100.00
13367;BME280;6752;52.612;13.630;2023-02-28T23:15:24;102520.47;;;-2.78;100.00
13367;BME280;6752;52.612;13.630;2023-02-28T23:20:26;102526.80;;;-2.87;100.00
13367;BME280;6752;52.612;13.630;2023-02-28T23:25:29;102526.64;;;-3.07;100.00
13367;BME280;6752;52.612;13.630;2023-02-28T23:30:31;102532.01;;;-3.16;100.00
13367;BME280;6752;52.612;13.630;2023-02-28T23:35:33;102523.78;;;-3.12;100.00
13367;BME280;6752;52.612;13.630;2023-02-28T23:40:36;102517.56;;;-3.20;100.00
13367;BME280;6752;52.612;13.630;2023-02-28T23:45:39;102516.84;;;-3.30;100.00
13367;BME280;6752;52.612;13.630;2023-02-28T23:50:40;102518.99;;;-3.29;100.00
13367;BME280;6752;52.612;13.630;2023-02-28T23:55:46;102513.16;;;-3.36;100.00
